Time;durP1;ratioP1;P1;durP2;ratioP2;P2;SDS_P1;SDS_P2;PMS_P1;PMS_P2;Temp;Humidity;BMP_temperature;BMP_pressure;BME280_temperature;BME280_humidity;BME280_pressure;Samples;Min_cycle;Max_cycle;Signal;HPM_P1;HPM_P2
2023/06/16 00:01:41;;;;;;;;;;;;;;;30.39;29.80;94253.38;4973357;28;7509;-54
2023/06/16 00:04:25;;;;;;;;;;;;;;;30.32;29.77;94247.81;4964222;28;6939;-54
2023/06/16 00:07:02;;;;;;;;;;;;;;;30.33;30.00;94255.56;4965527;28;6882;-54
2023/06/16 00:09:30;;;;;;;;;;;;;;;30.30;30.71;94267.72;4974944;28;7537;-54
2023/06/16 00:11:58;;;;;;;;;;;;;;;30.30;29.78;94295.47;4984541;28;7090;-54
2023/06/16 00:14:26;;;;;;;;;;;;;;;30.30;29.69;94311.38;4984960;28;7162;-54
2023/06/16 00:17:08;;;;;;;;;;;;;;;30.29;30.02;94310.66;4981935;28;7303;-54
2023/06/16 00:19:47;;;;;;;;;;;;;;;30.28;30.91;94313.94;4968971;28;7549;-54
2023/06/16 00:22:26;;;;;;;;;;;;;;;30.27;29.97;94318.78;4984092;28;7310;-53
2023/06/16 00:28:16;;;;;;;;;;;;;;;30.29;29.91;94335.63;4979533;28;7285;-54
2023/06/16 00:30:43;;;;;;;;;;;;;;;30.27;30.10;94338.22;4970200;28;7039;-54
2023/06/16 00:33:18;;;;;;;;;;;;;;;30.28;30.41;94350.03;4966186;28;7459;-54
2023/06/16 00:36:03;;;;;;;;;;;;;;;30.29;30.44;94360.59;4964097;28;9723;-54
2023/06/16 00:38:41;;;;;;;;;;;;;;;30.29;30.28;94365.41;4985191;28;7044;-54
2023/06/16 00:41:19;;;;;;;;;;;;;;;30.24;30.49;94358.69;4981662;28;7258;-54
2023/06/16 00:43:52;;;;;;;;;;;;;;;30.29;30.55;94352.28;4992862;28;7713;-54
2023/06/16 00:46:39;;;;;;;;;;;;;;;30.27;31.08;94351.31;5004611;28;9454;-53
2023/06/16 00:49:08;;;;;;;;;;;;;;;30.25;31.10;94343.56;4984452;28;9323;-54
2023/06/16 00:51:41;;;;;;;;;;;;;;;30.25;30.42;94326.91;4997088;28;7019;-54
2023/06/16 00:54:23;;;;;;;;;;;;;;;30.24;30.18;94305.22;4984280;28;7232;-53
2023/06/16 00:56:51;;;;;;;;;;;;;;;30.25;29.93;94290.09;4983463;28;7873;-54
2023/06/16 00:59:25;;;;;;;;;;;;;;;30.22;30.28;94274.53;4981698;28;7103;-54
2023/06/16 01:01:52;;;;;;;;;;;;;;;30.18;30.46;94255.44;4977924;28;7085;-54
2023/06/16 01:04:20;;;;;;;;;;;;;;;30.21;30.35;94259.91;4981079;28;7175;-54
2023/06/16 01:07:11;;;;;;;;;;;;;;;30.20;30.63;94257.69;4980767;28;7404;-53
2023/06/16 01:09:42;;;;;;;;;;;;;;;30.19;30.50;94256.94;4982822;28;7155;-53
2023/06/16 01:12:30;;;;;;;;;;;;;;;30.20;30.52;94260.44;4976432;28;9189;-53
2023/06/16 01:15:04;;;;;;;;;;;;;;;30.21;30.14;94271.00;4997002;28;7218;-54
2023/06/16 01:17:35;;;;;;;;;;;;;;;30.24;30.29;94291.38;4980884;28;7267;-54
2023/06/16 01:20:22;;;;;;;;;;;;;;;30.22;29.91;94291.16;4991720;28;7451;-54
2023/06/16 01:23:28;;;;;;;;;;;;;;;30.19;30.50;94284.66;4981239;28;8254;-54
2023/06/16 01:26:01;;;;;;;;;;;;;;;30.18;30.95;94276.91;4983588;28;7080;-54
2023/06/16 01:28:37;;;;;;;;;;;;;;;30.17;30.16;94269.84;5004103;28;7039;-54
2023/06/16 01:31:28;;;;;;;;;;;;;;;30.17;31.19;94287.25;4984113;28;9056;-54
2023/06/16 01:33:59;;;;;;;;;;;;;;;30.15;30.49;94275.94;4985942;28;7634;-54
2023/06/16 01:36:32;;;;;;;;;;;;;;;30.15;30.65;94267.63;4983677;28;7143;-54
2023/06/16 01:39:00;;;;;;;;;;;;;;;30.14;31.30;94265.41;4981215;28;9344;-54
2023/06/16 01:41:29;;;;;;;;;;;;;;;30.13;30.42;94272.97;4978640;28;7035;-54
2023/06/16 01:43:58;;;;;;;;;;;;;;;30.10;30.48;94271.28;4980896;28;7260;-54
2023/06/16 01:46:33;;;;;;;;;;;;;;;30.15;31.23;94280.75;4981343;28;7229;-54
2023/06/16 01:49:08;;;;;;;;;;;;;;;30.13;30.22;94275.00;5000450;28;7189;-54
2023/06/16 01:51:53;;;;;;;;;;;;;;;30.13;31.31;94263.91;4999698;28;8740;-54
2023/06/16 01:54:20;;;;;;;;;;;;;;;30.12;31.21;94270.75;4984903;28;9132;-54
2023/06/16 01:56:48;;;;;;;;;;;;;;;30.09;31.11;94264.25;4984151;28;8711;-54
2023/06/16 01:59:17;;;;;;;;;;;;;;;30.12;31.14;94273.53;4997935;28;8800;-54
2023/06/16 02:01:51;;;;;;;;;;;;;;;30.09;30.67;94257.97;4982400;28;7254;-54
2023/06/16 02:04:22;;;;;;;;;;;;;;;30.09;30.29;94260.75;4978223;28;7058;-54
2023/06/16 02:06:58;;;;;;;;;;;;;;;30.08;30.39;94254.44;4978315;28;9030;-54
2023/06/16 02:09:30;;;;;;;;;;;;;;;30.07;30.84;94255.75;4992613;28;8469;-54
2023/06/16 02:12:01;;;;;;;;;;;;;;;30.04;30.50;94248.50;4983374;28;7907;-54
2023/06/16 02:14:33;;;;;;;;;;;;;;;30.03;30.89;94254.59;4994447;28;9365;-54
2023/06/16 02:17:12;;;;;;;;;;;;;;;30.06;31.12;94259.06;4998500;28;7133;-54
2023/06/16 02:20:00;;;;;;;;;;;;;;;30.06;31.11;94251.47;4984958;28;7303;-54
2023/06/16 02:22:35;;;;;;;;;;;;;;;30.06;31.23;94256.28;4978140;28;7588;-54
2023/06/16 02:25:37;;;;;;;;;;;;;;;30.05;31.30;94258.31;4986626;28;9155;-53
2023/06/16 02:28:06;;;;;;;;;;;;;;;30.02;30.98;94264.94;4963792;28;7081;-53
2023/06/16 02:31:11;;;;;;;;;;;;;;;30.02;31.06;94259.41;4950888;28;7121;-53
2023/06/16 02:33:51;;;;;;;;;;;;;;;30.04;30.36;94261.63;4892909;29;6992;-54
2023/06/16 02:37:07;;;;;;;;;;;;;;;30.03;31.55;94260.91;4904376;29;8469;-54
2023/06/16 02:39:42;;;;;;;;;;;;;;;30.02;31.46;94266.97;4853134;29;7278;-53
2023/06/16 02:42:18;;;;;;;;;;;;;;;30.01;31.07;94269.03;4843285;29;7202;-53
2023/06/16 02:44:44;;;;;;;;;;;;;;;29.98;31.36;94275.63;4857879;29;7269;-54
2023/06/16 02:47:26;;;;;;;;;;;;;;;29.99;31.04;94273.63;4855785;29;7021;-53
2023/06/16 02:49:54;;;;;;;;;;;;;;;29.98;31.48;94278.41;4856366;29;8269;-53
2023/06/16 02:52:30;;;;;;;;;;;;;;;29.97;30.67;94271.38;4855185;29;8818;-54
2023/06/16 02:55:07;;;;;;;;;;;;;;;29.98;31.57;94277.66;4836949;29;8982;-54
2023/06/16 02:57:49;;;;;;;;;;;;;;;29.99;31.33;94270.84;4841034;29;6990;-54
2023/06/16 03:00:18;;;;;;;;;;;;;;;29.99;30.71;94270.84;4855853;29;7184;-54
2023/06/16 03:02:44;;;;;;;;;;;;;;;29.97;30.91;94276.19;4841416;29;7044;-54
2023/06/16 03:05:10;;;;;;;;;;;;;;;29.98;31.49;94275.63;4852451;29;8766;-54
2023/06/16 03:07:41;;;;;;;;;;;;;;;29.97;30.69;94267.88;4883575;29;7232;-54
2023/06/16 03:10:07;;;;;;;;;;;;;;;29.95;30.98;94270.44;4919162;29;8066;-53
2023/06/16 03:12:53;;;;;;;;;;;;;;;29.96;31.55;94275.44;4914342;29;7362;-54
2023/06/16 03:15:19;;;;;;;;;;;;;;;29.94;31.69;94272.47;4921320;28;7103;-54
2023/06/16 03:17:47;;;;;;;;;;;;;;;29.96;30.72;94269.91;4997658;28;6936;-54
2023/06/16 03:20:15;;;;;;;;;;;;;;;29.97;31.76;94276.91;4977699;28;7285;-54
2023/06/16 03:22:44;;;;;;;;;;;;;;;29.99;30.95;94276.38;4979525;28;7047;-53
2023/06/16 03:25:12;;;;;;;;;;;;;;;29.97;31.99;94284.50;4985102;28;7329;-54
2023/06/16 03:27:40;;;;;;;;;;;;;;;29.95;30.82;94287.81;4992540;28;9360;-54
2023/06/16 03:30:08;;;;;;;;;;;;;;;29.95;31.79;94287.81;4987050;28;7295;-54
2023/06/16 03:33:07;;;;;;;;;;;;;;;29.95;31.40;94292.63;4978328;28;7233;-54
2023/06/16 03:35:37;;;;;;;;;;;;;;;29.91;31.92;94281.88;4978816;28;8704;-53
2023/06/16 03:38:13;;;;;;;;;;;;;;;29.94;30.69;94289.09;4975703;28;7378;-53
2023/06/16 03:41:26;;;;;;;;;;;;;;;29.91;30.85;94292.97;4968163;28;9013;-54
2023/06/16 03:44:04;;;;;;;;;;;;;;;29.90;31.51;94287.97;4916410;29;9477;-54
2023/06/16 03:46:43;;;;;;;;;;;;;;;29.90;31.40;94291.47;4911805;29;7055;-54
2023/06/16 03:49:10;;;;;;;;;;;;;;;29.90;31.63;94297.03;4898654;29;9603;-54
2023/06/16 03:51:57;;;;;;;;;;;;;;;29.92;31.47;94296.47;4914288;29;9042;-54
2023/06/16 03:54:26;;;;;;;;;;;;;;;29.91;30.97;94298.50;4918720;29;7471;-54
2023/06/16 03:57:13;;;;;;;;;;;;;;;29.89;31.65;94301.06;4901248;29;7480;-54
2023/06/16 03:59:51;;;;;;;;;;;;;;;29.91;31.25;94298.50;4901545;29;7262;-54
2023/06/16 04:02:32;;;;;;;;;;;;;;;29.91;31.05;94300.53;4915713;29;7150;-54
2023/06/16 04:05:09;;;;;;;;;;;;;;;29.94;31.71;94297.44;4901158;29;6857;-54
2023/06/16 04:07:37;;;;;;;;;;;;;;;29.92;31.26;94305.56;4915418;29;7292;-53
2023/06/16 04:10:03;;;;;;;;;;;;;;;29.88;30.96;94299.59;4898226;29;8889;-54
2023/06/16 04:12:29;;;;;;;;;;;;;;;29.85;31.15;94295.13;4901467;29;9356;-54
2023/06/16 04:14:56;;;;;;;;;;;;;;;29.88;31.35;94296.84;4896472;29;7750;-54
2023/06/16 04:17:31;;;;;;;;;;;;;;;29.87;31.35;94298.09;4898161;29;7027;-54
2023/06/16 04:20:11;;;;;;;;;;;;;;;29.88;31.36;94291.28;4933088;28;8745;-54
2023/06/16 04:22:41;;;;;;;;;;;;;;;29.88;31.74;94296.09;4986990;28;8724;-53
2023/06/16 04:25:29;;;;;;;;;;;;;;;29.87;31.32;94295.31;4986201;28;7263;-53
2023/06/16 04:28:14;;;;;;;;;;;;;;;29.89;31.75;94298.31;4999230;28;7199;-54
2023/06/16 04:30:42;;;;;;;;;;;;;;;29.89;31.53;94292.00;4996763;28;7053;-54
2023/06/16 04:33:08;;;;;;;;;;;;;;;29.85;32.00;94295.13;4980773;28;9082;-54
2023/06/16 04:35:34;;;;;;;;;;;;;;;29.87;31.74;94292.56;4979634;28;9516;-54
2023/06/16 04:38:01;;;;;;;;;;;;;;;29.87;31.74;94298.09;4995903;28;7272;-53
2023/06/16 04:40:47;;;;;;;;;;;;;;;29.87;32.20;94300.88;4982649;28;7679;-53
2023/06/16 04:43:29;;;;;;;;;;;;;;;29.88;32.33;94301.63;4984695;28;7298;-54
2023/06/16 04:45:54;;;;;;;;;;;;;;;29.86;31.36;94304.94;4989364;28;7644;-54
2023/06/16 04:48:37;;;;;;;;;;;;;;;29.84;31.77;94307.50;4988467;28;9093;-54
2023/06/16 04:51:03;;;;;;;;;;;;;;;29.82;31.92;94303.78;4980708;28;7864;-54
2023/06/16 04:53:29;;;;;;;;;;;;;;;29.83;31.68;94311.56;4997576;28;9153;-54
2023/06/16 04:55:58;;;;;;;;;;;;;;;29.84;31.16;94306.78;4982378;28;7023;-54
2023/06/16 04:58:32;;;;;;;;;;;;;;;29.82;31.61;94304.53;4981027;28;7140;-54
2023/06/16 05:00:58;;;;;;;;;;;;;;;29.82;32.14;94315.63;4986460;28;7109;-54
2023/06/16 05:03:27;;;;;;;;;;;;;;;29.77;31.35;94310.97;4998856;28;7012;-55
2023/06/16 05:05:55;;;;;;;;;;;;;;;29.79;32.57;94297.31;4992764;28;7623;-54
2023/06/16 05:08:42;;;;;;;;;;;;;;;29.82;31.55;94307.28;5004459;28;9065;-54
2023/06/16 05:12:03;;;;;;;;;;;;;;;29.85;32.58;94306.22;5002341;28;7432;-53
2023/06/16 05:14:40;;;;;;;;;;;;;;;29.80;31.55;94301.53;4948944;28;9316;-54
2023/06/16 05:17:08;;;;;;;;;;;;;;;29.80;32.23;94304.31;4944250;28;7128;-54
2023/06/16 05:19:44;;;;;;;;;;;;;;;29.79;32.17;94309.13;4953732;28;8606;-54
2023/06/16 05:22:26;;;;;;;;;;;;;;;29.80;31.85;94310.63;4949421;28;7238;-54
2023/06/16 05:25:02;;;;;;;;;;;;;;;29.79;32.42;94309.13;4958360;28;7431;-54
2023/06/16 05:27:29;;;;;;;;;;;;;;;29.80;31.63;94313.38;4958610;28;7232;-54
2023/06/16 05:29:58;;;;;;;;;;;;;;;29.78;32.67;94306.88;4946214;28;7112;-54
2023/06/16 05:32:28;;;;;;;;;;;;;;;29.80;32.08;94304.31;4942708;28;7120;-53
2023/06/16 05:35:28;;;;;;;;;;;;;;;29.82;32.43;94307.28;4943326;28;7184;-54
2023/06/16 05:38:29;;;;;;;;;;;;;;;29.82;32.64;94307.28;4893228;29;7243;-54
2023/06/16 05:41:06;;;;;;;;;;;;;;;29.81;31.62;94316.91;4892533;29;9464;-53
2023/06/16 05:44:04;;;;;;;;;;;;;;;29.81;32.23;94319.69;4880389;29;7226;-54
2023/06/16 05:46:47;;;;;;;;;;;;;;;29.80;31.67;94320.94;4876043;29;7532;-54
2023/06/16 05:49:47;;;;;;;;;;;;;;;29.81;32.59;94316.91;4880570;29;7139;-53
2023/06/16 05:52:26;;;;;;;;;;;;;;;29.82;31.52;94325.97;4858733;29;7064;-53
2023/06/16 05:55:02;;;;;;;;;;;;;;;29.82;31.85;94323.22;4857696;29;7404;-53
2023/06/16 05:57:41;;;;;;;;;;;;;;;29.80;31.82;94327.25;4858427;29;8855;-55
2023/06/16 06:00:36;;;;;;;;;;;;;;;29.80;31.92;94332.03;4841499;29;7917;-54
2023/06/16 06:03:04;;;;;;;;;;;;;;;29.79;31.54;94334.09;4820028;29;8854;-53
2023/06/16 06:06:01;;;;;;;;;;;;;;;29.79;32.36;94336.88;5075100;27;6716;-54
2023/06/16 06:08:29;;;;;;;;;;;;;;;29.80;32.43;94340.38;5090264;28;9057;-54
2023/06/16 06:11:21;;;;;;;;;;;;;;;29.79;31.39;94347.22;5073632;28;7345;-54
2023/06/16 06:13:50;;;;;;;;;;;;;;;29.79;32.67;94349.97;5039142;28;9122;-53
2023/06/16 06:16:16;;;;;;;;;;;;;;;29.79;31.76;94347.22;5086515;28;6992;-53
2023/06/16 06:19:30;;;;;;;;;;;;;;;29.79;32.13;94345.19;5040902;28;7010;-54
2023/06/16 06:22:32;;;;;;;;;;;;;;;29.80;31.61;94348.69;5016385;28;6997;-54
2023/06/16 06:25:23;;;;;;;;;;;;;;;29.79;32.08;94349.97;5017785;28;7052;-54
2023/06/16 06:28:00;;;;;;;;;;;;;;;29.80;32.19;94349.44;5017576;28;7286;-54
2023/06/16 06:30:37;;;;;;;;;;;;;;;29.80;31.94;94351.44;5004340;28;7360;-54
2023/06/16 06:33:03;;;;;;;;;;;;;;;29.79;31.99;94359.06;5015540;28;9048;-54
2023/06/16 06:35:32;;;;;;;;;;;;;;;29.80;32.63;94352.19;5015238;28;8849;-54
2023/06/16 06:38:01;;;;;;;;;;;;;;;29.82;32.42;94357.19;5009977;28;7241;-54
2023/06/16 06:40:32;;;;;;;;;;;;;;;29.84;32.02;94359.44;4986014;28;9011;-54
2023/06/16 06:43:25;;;;;;;;;;;;;;;29.82;32.47;94362.75;4988529;28;7327;-54
2023/06/16 06:46:10;;;;;;;;;;;;;;;29.84;32.43;94367.78;4985813;28;7509;-54
2023/06/16 06:48:48;;;;;;;;;;;;;;;29.83;31.89;94364.25;5004889;28;9128;-54
2023/06/16 06:51:50;;;;;;;;;;;;;;;29.81;32.34;94361.28;4987496;28;9214;-54
2023/06/16 06:54:17;;;;;;;;;;;;;;;29.81;31.62;94364.03;4946320;29;9379;-54
2023/06/16 06:57:01;;;;;;;;;;;;;;;29.83;31.64;94369.03;4929920;29;7599;-54
2023/06/16 06:59:35;;;;;;;;;;;;;;;29.86;32.43;94367.97;4946880;28;7102;-54
2023/06/16 07:02:04;;;;;;;;;;;;;;;29.84;32.51;94371.28;4950119;28;8703;-54
2023/06/16 07:04:31;;;;;;;;;;;;;;;29.85;32.13;94378.31;4965842;28;7247;-54
2023/06/16 07:11:12;;;;;;;;;;;;;;;29.85;32.06;94372.03;4966373;28;7191;-54
2023/06/16 07:13:48;;;;;;;;;;;;;;;29.83;32.63;94369.78;4966202;28;7160;-54
2023/06/16 07:16:15;;;;;;;;;;;;;;;29.85;31.87;94374.78;4943286;28;8216;-53
2023/06/16 07:18:49;;;;;;;;;;;;;;;29.82;32.73;94379.38;4950784;28;7022;-54
2023/06/16 07:21:46;;;;;;;;;;;;;;;29.82;32.35;94379.38;4935828;28;9003;-54
2023/06/16 07:24:28;;;;;;;;;;;;;;;29.85;31.85;94378.31;4884803;29;8468;-54
2023/06/16 07:27:14;;;;;;;;;;;;;;;29.86;32.38;94379.81;4878196;29;7102;-54
2023/06/16 07:29:49;;;;;;;;;;;;;;;29.87;32.84;94386.09;4934512;29;7264;-54
2023/06/16 07:32:49;;;;;;;;;;;;;;;29.85;32.05;94383.84;4934852;29;8739;-53
2023/06/16 07:38:55;;;;;;;;;;;;;;;29.88;32.60;94393.13;4858015;29;8697;-54
2023/06/16 07:41:44;;;;;;;;;;;;;;;29.87;32.34;94386.09;4841212;29;9412;-54
2023/06/16 07:44:12;;;;;;;;;;;;;;;29.87;32.83;94389.59;4858751;29;7001;-53
2023/06/16 07:46:51;;;;;;;;;;;;;;;29.88;31.68;94388.34;4857284;29;7280;-54
2023/06/16 07:49:20;;;;;;;;;;;;;;;29.88;32.33;94382.03;4858749;29;9083;-54
2023/06/16 07:52:16;;;;;;;;;;;;;;;29.90;32.63;94388.53;4838513;29;7543;-54
2023/06/16 07:55:02;;;;;;;;;;;;;;;29.91;32.23;94392.03;4841699;29;7243;-54
2023/06/16 07:57:44;;;;;;;;;;;;;;;29.90;32.67;94390.56;4843727;29;7327;-54
2023/06/16 08:00:32;;;;;;;;;;;;;;;29.88;32.57;94393.13;4854811;29;7180;-54
2023/06/16 08:02:59;;;;;;;;;;;;;;;29.89;32.48;94392.59;4881352;29;9094;-54
2023/06/16 08:05:25;;;;;;;;;;;;;;;29.87;32.55;94392.38;4880400;29;7103;-54
2023/06/16 08:08:27;;;;;;;;;;;;;;;29.88;33.75;94393.13;4879311;29;9114;-54
2023/06/16 08:11:08;;;;;;;;;;;;;;;29.87;33.98;94384.06;4851209;29;7418;-54
2023/06/16 08:13:37;;;;;;;;;;;;;;;29.89;34.33;94389.81;4848378;29;7365;-54
2023/06/16 08:16:05;;;;;;;;;;;;;;;29.90;33.18;94385.78;4893070;29;7281;-54
2023/06/16 08:18:32;;;;;;;;;;;;;;;29.92;33.44;94388.00;4909506;29;7027;-54
2023/06/16 08:20:57;;;;;;;;;;;;;;;29.93;33.67;94381.91;4910568;29;7299;-54
2023/06/16 08:23:23;;;;;;;;;;;;;;;29.95;33.62;94387.66;4894009;29;9044;-54
2023/06/16 08:25:50;;;;;;;;;;;;;;;29.94;33.32;94383.41;4909612;29;9111;-54
2023/06/16 08:28:16;;;;;;;;;;;;;;;29.95;33.94;94381.38;4908577;29;9031;-54
2023/06/16 08:31:06;;;;;;;;;;;;;;;29.96;33.81;94389.16;4930706;28;8266;-54
2023/06/16 08:33:42;;;;;;;;;;;;;;;29.94;33.76;94385.44;4977018;28;7289;-54
2023/06/16 08:36:27;;;;;;;;;;;;;;;29.95;32.95;94393.19;4963040;28;7354;-54
2023/06/16 08:39:40;;;;;;;;;;;;;;;29.96;33.81;94388.41;4966195;28;7038;-54
2023/06/16 08:42:18;;;;;;;;;;;;;;;29.97;33.62;94389.91;4922386;29;7232;-54
2023/06/16 08:45:01;;;;;;;;;;;;;;;29.97;32.53;94396.16;4898972;29;9096;-53
2023/06/16 08:47:38;;;;;;;;;;;;;;;29.96;32.31;94383.59;4961251;28;7209;-53
2023/06/16 08:50:22;;;;;;;;;;;;;;;29.98;33.08;94394.91;4981563;28;9645;-53
2023/06/16 08:53:00;;;;;;;;;;;;;;;29.97;32.60;94381.59;4964154;28;7208;-54
2023/06/16 08:55:30;;;;;;;;;;;;;;;29.96;32.14;94388.41;4995035;28;9131;-53
2023/06/16 08:57:58;;;;;;;;;;;;;;;29.97;32.58;94384.34;4976993;28;9067;-52
2023/06/16 09:00:24;;;;;;;;;;;;;;;29.95;34.17;94379.31;4976584;28;7046;-53
2023/06/16 09:02:55;;;;;;;;;;;;;;;29.95;33.09;94382.09;4958398;28;9667;-53
2023/06/16 09:05:24;;;;;;;;;;;;;;;29.95;33.03;94379.31;4961718;28;7144;-53
2023/06/16 09:07:53;;;;;;;;;;;;;;;29.98;33.01;94381.03;4960272;28;9412;-53
2023/06/16 09:10:26;;;;;;;;;;;;;;;30.00;32.89;94380.47;4971356;28;7224;-52
2023/06/16 09:13:04;;;;;;;;;;;;;;;29.99;33.04;94382.53;4962397;28;9002;-53
2023/06/16 09:15:33;;;;;;;;;;;;;;;29.99;33.20;94377.00;4961072;28;7479;-53
2023/06/16 09:18:06;;;;;;;;;;;;;;;29.99;32.47;94376.25;4978115;28;7674;-53
2023/06/16 09:20:33;;;;;;;;;;;;;;;29.97;33.14;94379.53;5014888;28;6882;-53
2023/06/16 09:23:00;;;;;;;;;;;;;;;29.98;32.37;94374.72;5023515;28;7362;-54
2023/06/16 09:25:32;;;;;;;;;;;;;;;29.96;33.30;94372.50;5007238;28;8992;-53
2023/06/16 09:27:59;;;;;;;;;;;;;;;29.98;32.51;94363.63;5048155;28;7122;-54
2023/06/16 09:30:30;;;;;;;;;;;;;;;29.99;32.52;94363.13;5016419;28;9058;-54
2023/06/16 09:32:58;;;;;;;;;;;;;;;30.01;32.55;94363.31;5031183;28;9368;-54
2023/06/16 09:35:27;;;;;;;;;;;;;;;30.00;32.51;94355.53;5031091;28;8991;-54
2023/06/16 09:37:56;;;;;;;;;;;;;;;30.01;32.26;94355.00;5012612;28;8500;-53
2023/06/16 09:40:29;;;;;;;;;;;;;;;30.01;32.77;94363.31;5022154;28;7127;-52
2023/06/16 09:43:10;;;;;;;;;;;;;;;30.02;33.23;94353.69;5017575;28;9503;-53
2023/06/16 09:45:39;;;;;;;;;;;;;;;30.04;33.15;94359.44;5019761;28;7330;-54
2023/06/16 09:48:15;;;;;;;;;;;;;;;30.03;32.52;94355.19;5018097;28;7612;-54
2023/06/16 09:51:06;;;;;;;;;;;;;;;30.05;32.23;94351.88;5034847;28;9027;-54
2023/06/16 09:53:49;;;;;;;;;;;;;;;30.05;32.79;94352.63;5047790;28;7301;-55
2023/06/16 09:56:17;;;;;;;;;;;;;;;30.07;32.62;94347.28;5031066;28;8704;-55
2023/06/16 09:58:59;;;;;;;;;;;;;;;30.06;32.64;94359.66;5032989;28;9201;-56
2023/06/16 10:01:40;;;;;;;;;;;;;;;30.07;33.46;94357.63;5010595;28;7739;-55
2023/06/16 10:04:10;;;;;;;;;;;;;;;30.07;33.37;94354.84;5033249;28;7126;-55
2023/06/16 10:06:55;;;;;;;;;;;;;;;30.02;33.61;94347.41;5020196;28;7180;-55
2023/06/16 10:09:27;;;;;;;;;;;;;;;30.01;33.31;94349.44;5014395;28;7032;-55
2023/06/16 10:12:15;;;;;;;;;;;;;;;30.01;32.99;94352.22;5012559;28;9019;-55
2023/06/16 10:15:20;;;;;;;;;;;;;;;30.06;33.63;94354.09;5010215;28;8465;-54
2023/06/16 10:17:59;;;;;;;;;;;;;;;30.07;32.98;94352.81;4971090;28;7284;-55
2023/06/16 10:20:37;;;;;;;;;;;;;;;30.07;32.68;94349.31;4977669;28;8684;-55
2023/06/16 10:23:13;;;;;;;;;;;;;;;30.10;33.19;94348.94;4977081;28;7568;-55
2023/06/16 10:25:45;;;;;;;;;;;;;;;30.09;32.47;94347.47;4978127;28;9028;-55
2023/06/16 10:28:50;;;;;;;;;;;;;;;30.12;32.13;94340.88;4955705;28;9034;-54
2023/06/16 10:31:30;;;;;;;;;;;;;;;30.13;32.35;94347.88;4976334;28;7040;-55
2023/06/16 10:33:58;;;;;;;;;;;;;;;30.12;32.41;94340.88;4975741;28;7411;-55
2023/06/16 10:36:42;;;;;;;;;;;;;;;30.14;32.67;94343.84;4975666;28;7443;-55
2023/06/16 10:39:45;;;;;;;;;;;;;;;30.15;32.73;94344.56;4975662;28;9011;-55
2023/06/16 10:42:13;;;;;;;;;;;;;;;30.14;32.00;94343.84;4876189;29;7252;-55
2023/06/16 10:44:55;;;;;;;;;;;;;;;30.17;32.26;94342.72;4892733;29;7264;-55
2023/06/16 10:47:36;;;;;;;;;;;;;;;30.19;31.89;94340.16;4905721;29;8556;-55
2023/06/16 10:50:12;;;;;;;;;;;;;;;30.19;32.91;94342.22;4884151;29;8270;-55
2023/06/16 10:53:09;;;;;;;;;;;;;;;30.17;32.33;94341.97;4891241;28;9137;-55
2023/06/16 10:55:38;;;;;;;;;;;;;;;30.18;32.90;94332.38;4958979;28;7287;-55
2023/06/16 10:58:20;;;;;;;;;;;;;;;30.18;32.73;94337.94;4927482;28;8266;-55
2023/06/16 11:01:27;;;;;;;;;;;;;;;30.16;32.86;94335.72;4941018;28;9429;-55
2023/06/16 11:04:03;;;;;;;;;;;;;;;30.17;32.64;94331.63;4925680;28;9687;-55
2023/06/16 11:07:21;;;;;;;;;;;;;;;30.17;32.96;94339.97;4938453;28;7249;-55
2023/06/16 11:10:10;;;;;;;;;;;;;;;30.21;33.42;94336.84;4909066;29;8296;-55
2023/06/16 11:12:38;;;;;;;;;;;;;;;30.20;32.77;94329.81;4921586;29;7070;-55
2023/06/16 11:15:06;;;;;;;;;;;;;;;30.25;32.67;94326.16;4920214;29;7342;-54
2023/06/16 11:17:32;;;;;;;;;;;;;;;30.26;33.43;94328.38;4934997;28;7595;-55
2023/06/16 11:20:17;;;;;;;;;;;;;;;30.26;33.23;94333.94;4934451;28;8823;-56
2023/06/16 11:23:12;;;;;;;;;;;;;;;30.26;31.98;94328.38;4937676;28;7192;-55
2023/06/16 11:25:50;;;;;;;;;;;;;;;30.25;33.13;94329.69;4909320;29;7264;-55
2023/06/16 11:28:29;;;;;;;;;;;;;;;30.28;32.63;94322.28;4920366;29;7702;-55
2023/06/16 11:31:01;;;;;;;;;;;;;;;30.30;32.15;94322.47;4907644;29;9158;-55
2023/06/16 11:33:46;;;;;;;;;;;;;;;30.28;32.90;94320.25;4922091;29;6857;-55
2023/06/16 11:36:36;;;;;;;;;;;;;;;30.30;32.63;94317.69;4890165;29;8261;-55
2023/06/16 11:39:11;;;;;;;;;;;;;;;30.29;32.90;94327.31;4910576;29;9228;-55
2023/06/16 11:42:04;;;;;;;;;;;;;;;30.31;32.87;94318.47;4910601;29;7346;-55
2023/06/16 11:44:41;;;;;;;;;;;;;;;30.30;32.22;94319.69;4916614;28;9190;-55
2023/06/16 11:47:19;;;;;;;;;;;;;;;30.33;32.82;94316.63;4999528;28;7032;-55
2023/06/16 11:49:59;;;;;;;;;;;;;;;30.32;32.95;94306.81;4998848;28;7263;-55
2023/06/16 11:52:45;;;;;;;;;;;;;;;30.32;32.79;94314.41;4997352;28;7555;-55
2023/06/16 11:55:24;;;;;;;;;;;;;;;30.32;32.33;94315.13;4998368;28;7883;-55
2023/06/16 11:58:21;;;;;;;;;;;;;;;30.37;32.69;94322.56;4971054;28;7736;-55
2023/06/16 12:01:03;;;;;;;;;;;;;;;30.37;33.19;94314.25;4956721;28;7074;-55
2023/06/16 12:04:05;;;;;;;;;;;;;;;30.40;33.09;94309.66;4974250;28;9048;-55
2023/06/16 12:06:32;;;;;;;;;;;;;;;30.41;32.86;94306.31;4977148;28;7521;-55
2023/06/16 12:09:09;;;;;;;;;;;;;;;30.41;32.58;94314.66;4978526;28;7214;-55
2023/06/16 12:12:07;;;;;;;;;;;;;;;30.43;32.15;94305.75;4957132;28;9108;-55
2023/06/16 12:14:46;;;;;;;;;;;;;;;30.43;32.61;94300.22;4901347;29;7455;-55
2023/06/16 12:17:14;;;;;;;;;;;;;;;30.45;32.77;94308.72;4895234;29;9400;-55
2023/06/16 12:19:52;;;;;;;;;;;;;;;30.48;33.22;94305.63;4902155;29;8738;-55
2023/06/16 12:22:34;;;;;;;;;;;;;;;30.49;33.23;94312.66;4903160;29;9058;-55
2023/06/16 12:25:02;;;;;;;;;;;;;;;30.52;32.25;94300.47;4894937;29;9046;-55
2023/06/16 12:27:37;;;;;;;;;;;;;;;30.50;32.22;94303.03;4900159;29;9348;-55
2023/06/16 12:30:04;;;;;;;;;;;;;;;30.52;33.32;94300.47;4887257;29;7149;-55
2023/06/16 12:32:41;;;;;;;;;;;;;;;30.51;33.25;94298.25;4902972;29;7015;-55
2023/06/16 12:35:39;;;;;;;;;;;;;;;30.53;32.04;94285.31;4890689;29;7491;-55
2023/06/16 12:38:40;;;;;;;;;;;;;;;30.50;33.11;94289.16;4858030;29;8514;-56
2023/06/16 12:41:11;;;;;;;;;;;;;;;30.53;32.91;94293.63;4854814;29;7129;-55
2023/06/16 12:43:48;;;;;;;;;;;;;;;30.54;32.14;94292.34;4841353;29;9031;-55
2023/06/16 12:46:18;;;;;;;;;;;;;;;30.57;32.51;94293.28;4850345;29;9097;-55
2023/06/16 12:48:47;;;;;;;;;;;;;;;30.58;32.82;94288.47;4848299;29;7296;-55
2023/06/16 12:51:17;;;;;;;;;;;;;;;30.61;33.30;94295.69;4888964;29;8726;-55
2023/06/16 12:53:46;;;;;;;;;;;;;;;30.58;32.92;94294.03;4887238;29;9437;-55
2023/06/16 12:56:16;;;;;;;;;;;;;;;30.58;32.87;94291.25;4901965;29;8843;-55
2023/06/16 12:58:42;;;;;;;;;;;;;;;30.56;32.90;94291.78;4902841;29;7073;-55
2023/06/16 13:01:15;;;;;;;;;;;;;;;30.55;32.89;94290.31;4905119;29;7997;-55
2023/06/16 13:03:46;;;;;;;;;;;;;;;30.56;33.05;94297.34;4895196;29;7411;-55
2023/06/16 13:06:18;;;;;;;;;;;;;;;30.55;32.63;94295.84;4902652;29;7998;-55
2023/06/16 13:08:44;;;;;;;;;;;;;;;30.58;33.09;94288.47;4905277;29;8265;-55
2023/06/16 13:11:10;;;;;;;;;;;;;;;30.61;32.63;94295.69;4904877;29;9085;-55
2023/06/16 13:13:43;;;;;;;;;;;;;;;30.64;31.85;94294.63;4897942;28;7173;-55
2023/06/16 13:16:10;;;;;;;;;;;;;;;30.64;33.06;94289.06;4963546;28;8723;-55
2023/06/16 13:18:36;;;;;;;;;;;;;;;30.62;33.24;94286.09;5015900;28;7179;-55
2023/06/16 13:21:02;;;;;;;;;;;;;;;30.61;33.26;94279.03;5005850;28;9002;-55
2023/06/16 13:23:29;;;;;;;;;;;;;;;30.62;32.93;94283.31;5015006;28;9393;-55
2023/06/16 13:25:57;;;;;;;;;;;;;;;30.64;32.37;94272.41;5023073;28;7272;-55
2023/06/16 13:28:23;;;;;;;;;;;;;;;30.68;32.82;94278.34;5014909;28;7299;-55
2023/06/16 13:30:52;;;;;;;;;;;;;;;30.69;31.96;94274.28;5029863;28;7035;-55
2023/06/16 13:33:20;;;;;;;;;;;;;;;30.71;32.73;94271.72;5015103;28;7063;-56
2023/06/16 13:35:46;;;;;;;;;;;;;;;30.73;32.68;94269.88;5022761;28;7041;-55
2023/06/16 13:38:14;;;;;;;;;;;;;;;30.75;32.67;94270.06;5012977;28;7084;-55
2023/06/16 13:40:40;;;;;;;;;;;;;;;30.72;31.76;94259.28;5030239;28;9145;-55
2023/06/16 13:43:13;;;;;;;;;;;;;;;30.75;32.83;94260.97;5022793;28;7614;-55
2023/06/16 13:45:39;;;;;;;;;;;;;;;30.77;32.44;94259.16;5006496;28;9031;-55
2023/06/16 13:48:07;;;;;;;;;;;;;;;30.79;31.64;94253.03;5030975;28;7205;-55
2023/06/16 13:50:33;;;;;;;;;;;;;;;30.72;32.85;94245.41;5004679;28;7222;-55
2023/06/16 13:53:00;;;;;;;;;;;;;;;30.75;32.47;94261.72;5015302;28;7264;-55
2023/06/16 13:55:26;;;;;;;;;;;;;;;30.74;32.46;94253.94;5020801;28;7352;-55
2023/06/16 13:57:54;;;;;;;;;;;;;;;30.75;32.05;94264.50;5030614;28;7355;-55
2023/06/16 14:00:20;;;;;;;;;;;;;;;30.77;31.82;94264.69;5021405;28;8797;-55